Time;durP1;ratioP1;P1;durP2;ratioP2;P2;SDS_P1;SDS_P2;PMS_P1;PMS_P2;Temp;Humidity;BMP_temperature;BMP_pressure;BME280_temperature;BME280_humidity;BME280_pressure;Samples;Min_cycle;Max_cycle;Signal;HPM_P1;HPM_P2
2022/05/28 00:02:11;;;;;;;10.95;1.75;;;;;;;;;;5013306;28;20046;-74
2022/05/28 00:04:37;;;;;;;12.80;1.70;;;;;;;;;;5013504;28;20077;-74
2022/05/28 00:07:04;;;;;;;13.27;2.22;;;;;;;;;;5015820;28;20053;-75
2022/05/28 00:09:31;;;;;;;11.23;1.98;;;;;;;;;;5013850;28;20042;-75
2022/05/28 00:11:57;;;;;;;14.55;1.88;;;;;;;;;;5012145;28;20137;-74
2022/05/28 00:14:23;;;;;;;16.23;2.22;;;;;;;;;;5010448;28;20041;-74
2022/05/28 00:16:49;;;;;;;12.27;2.20;;;;;;;;;;5017646;28;20077;-74
2022/05/28 00:19:15;;;;;;;12.23;2.08;;;;;;;;;;5012782;28;20096;-73
2022/05/28 00:21:41;;;;;;;12.18;1.98;;;;;;;;;;5014291;28;20100;-73
2022/05/28 00:24:07;;;;;;;14.20;1.83;;;;;;;;;;5012922;28;20049;-73
2022/05/28 00:26:33;;;;;;;15.02;2.67;;;;;;;;;;5015417;28;20046;-74
2022/05/28 00:28:59;;;;;;;10.27;1.63;;;;;;;;;;5015789;28;20513;-74
2022/05/28 00:31:25;;;;;;;11.40;2.30;;;;;;;;;;5018012;28;20120;-74
2022/05/28 00:33:51;;;;;;;12.88;1.88;;;;;;;;;;5013973;28;20037;-74
2022/05/28 00:36:17;;;;;;;17.08;2.50;;;;;;;;;;5014459;28;20050;-74
2022/05/28 00:38:44;;;;;;;10.00;1.70;;;;;;;;;;5015127;28;20077;-74
2022/05/28 00:41:11;;;;;;;13.80;2.08;;;;;;;;;;5008499;28;20404;-74
2022/05/28 00:43:38;;;;;;;11.75;1.48;;;;;;;;;;5011604;28;20484;-74
2022/05/28 00:46:06;;;;;;;12.93;1.83;;;;;;;;;;5014230;28;20049;-74
2022/05/28 00:48:34;;;;;;;12.13;2.08;;;;;;;;;;5014657;28;20052;-74
2022/05/28 00:51:05;;;;;;;12.10;1.85;;;;;;;;;;5013182;28;20175;-74
2022/05/28 00:53:32;;;;;;;10.40;1.90;;;;;;;;;;5009951;28;20124;-74
2022/05/28 00:55:58;;;;;;;8.05;1.52;;;;;;;;;;5014984;28;20052;-74
2022/05/28 00:58:24;;;;;;;14.23;1.67;;;;;;;;;;5013648;28;20093;-74
2022/05/28 01:00:50;;;;;;;13.05;1.98;;;;;;;;;;5012878;28;20053;-74
2022/05/28 01:03:31;;;;;;;12.73;1.95;;;;;;;;;;5011365;28;20042;-75
2022/05/28 01:06:11;;;;;;;11.27;2.05;;;;;;;;;;5013643;28;20173;-74
2022/05/28 01:08:37;;;;;;;13.63;1.90;;;;;;;;;;5014926;28;20393;-74
2022/05/28 01:11:12;;;;;;;10.57;1.67;;;;;;;;;;5011729;28;20078;-74
2022/05/28 01:13:54;;;;;;;12.38;1.80;;;;;;;;;;5003037;28;20045;-74
2022/05/28 01:16:23;;;;;;;10.95;1.85;;;;;;;;;;4995221;28;20061;-74
2022/05/28 01:18:51;;;;;;;10.60;1.38;;;;;;;;;;5007814;28;20404;-74
2022/05/28 01:21:43;;;;;;;11.82;1.42;;;;;;;;;;5014652;28;20489;-73
2022/05/28 01:24:22;;;;;;;7.32;1.40;;;;;;;;;;5007612;28;20129;-74
2022/05/28 01:26:58;;;;;;;8.45;1.63;;;;;;;;;;5001836;28;20050;-74
2022/05/28 01:29:27;;;;;;;11.07;1.60;;;;;;;;;;5012618;28;20124;-74
2022/05/28 01:31:55;;;;;;;11.40;1.77;;;;;;;;;;5012615;28;20555;-73
2022/05/28 01:34:22;;;;;;;10.50;1.33;;;;;;;;;;5014046;28;20041;-74
2022/05/28 01:36:48;;;;;;;10.45;1.58;;;;;;;;;;5012838;28;20052;-74
2022/05/28 01:39:15;;;;;;;12.32;1.83;;;;;;;;;;5015388;28;20056;-74
2022/05/28 01:41:41;;;;;;;7.95;1.30;;;;;;;;;;5013104;28;20125;-73
2022/05/28 01:44:08;;;;;;;9.63;1.83;;;;;;;;;;5015032;28;20094;-74
2022/05/28 01:46:35;;;;;;;11.52;1.67;;;;;;;;;;5015271;28;20042;-74
2022/05/28 01:49:01;;;;;;;13.60;1.77;;;;;;;;;;5015055;28;20041;-73
2022/05/28 01:51:29;;;;;;;11.75;1.88;;;;;;;;;;5015265;28;20049;-73
2022/05/28 01:54:09;;;;;;;14.57;1.67;;;;;;;;;;5012186;28;20124;-74
2022/05/28 01:56:37;;;;;;;10.23;1.73;;;;;;;;;;5014751;28;20100;-73
2022/05/28 01:59:03;;;;;;;11.05;1.73;;;;;;;;;;5011435;28;20041;-73
2022/05/28 02:01:30;;;;;;;8.55;1.10;;;;;;;;;;5015267;28;20480;-73
2022/05/28 02:03:59;;;;;;;11.27;1.75;;;;;;;;;;5013242;28;20041;-73
2022/05/28 02:06:25;;;;;;;11.63;1.77;;;;;;;;;;5013202;28;20037;-73
2022/05/28 02:08:52;;;;;;;12.07;1.67;;;;;;;;;;5014571;28;20042;-73
2022/05/28 02:11:26;;;;;;;9.45;1.65;;;;;;;;;;5012148;28;20100;-73
2022/05/28 02:14:08;;;;;;;9.30;1.70;;;;;;;;;;5013562;28;20047;-73
2022/05/28 02:16:50;;;;;;;10.68;2.03;;;;;;;;;;5013489;28;20053;-74
2022/05/28 02:19:26;;;;;;;15.95;1.75;;;;;;;;;;5002602;28;20098;-74
2022/05/28 02:22:00;;;;;;;14.73;1.73;;;;;;;;;;5007212;28;20057;-73
2022/05/28 02:24:46;;;;;;;8.73;1.30;;;;;;;;;;4994772;28;20043;-74
2022/05/28 02:27:14;;;;;;;13.98;1.95;;;;;;;;;;5011035;28;20497;-73
2022/05/28 02:29:41;;;;;;;8.50;1.60;;;;;;;;;;5015028;28;20294;-73
2022/05/28 02:32:18;;;;;;;12.65;1.90;;;;;;;;;;5011328;28;20122;-73
2022/05/28 02:34:45;;;;;;;13.27;2.13;;;;;;;;;;5013174;28;20049;-74
2022/05/28 02:37:12;;;;;;;11.98;1.83;;;;;;;;;;5011499;28;20049;-73
2022/05/28 02:39:38;;;;;;;9.98;1.60;;;;;;;;;;5013230;28;20085;-73
2022/05/28 02:42:04;;;;;;;12.07;1.85;;;;;;;;;;5011125;28;20054;-74
2022/05/28 02:44:30;;;;;;;9.77;1.77;;;;;;;;;;5013226;28;20088;-74
2022/05/28 02:46:56;;;;;;;13.20;1.83;;;;;;;;;;5011648;28;20046;-74
2022/05/28 02:49:23;;;;;;;9.63;1.27;;;;;;;;;;5011595;28;20054;-74
2022/05/28 02:51:49;;;;;;;12.95;2.10;;;;;;;;;;5012478;28;20050;-74
2022/05/28 02:54:15;;;;;;;12.35;1.98;;;;;;;;;;5010847;28;20053;-74
2022/05/28 02:56:42;;;;;;;8.23;1.50;;;;;;;;;;5013565;28;20037;-74
2022/05/28 02:59:08;;;;;;;9.90;1.52;;;;;;;;;;4994386;28;20053;-75
2022/05/28 03:01:34;;;;;;;15.82;2.40;;;;;;;;;;5011121;28;20069;-74
2022/05/28 03:04:01;;;;;;;9.38;1.73;;;;;;;;;;5010689;28;20053;-73
2022/05/28 03:06:27;;;;;;;14.70;1.77;;;;;;;;;;5013135;28;20045;-74
2022/05/28 03:08:53;;;;;;;14.40;1.90;;;;;;;;;;4995097;28;20050;-73
2022/05/28 03:11:20;;;;;;;10.18;1.77;;;;;;;;;;5011191;28;20136;-73
2022/05/28 03:13:46;;;;;;;10.88;1.40;;;;;;;;;;5008828;28;20512;-73
2022/05/28 03:16:12;;;;;;;11.43;1.83;;;;;;;;;;5013340;28;20118;-74
2022/05/28 03:18:38;;;;;;;10.75;1.77;;;;;;;;;;5012044;28;20100;-74
2022/05/28 03:21:05;;;;;;;11.07;1.70;;;;;;;;;;5012179;28;20136;-74
2022/05/28 03:23:31;;;;;;;14.15;2.40;;;;;;;;;;5009732;28;20404;-73
2022/05/28 03:25:57;;;;;;;13.75;1.90;;;;;;;;;;5016880;28;20069;-73
2022/05/28 03:28:23;;;;;;;9.05;1.63;;;;;;;;;;5015970;28;20045;-74
2022/05/28 03:30:49;;;;;;;14.55;2.22;;;;;;;;;;5013291;28;20042;-74
2022/05/28 03:33:16;;;;;;;12.45;2.25;;;;;;;;;;5004581;28;20049;-74
2022/05/28 03:35:42;;;;;;;14.13;2.40;;;;;;;;;;5016489;28;20452;-74
2022/05/28 03:38:08;;;;;;;16.05;2.22;;;;;;;;;;5014777;28;20048;-74
2022/05/28 03:40:34;;;;;;;14.85;2.80;;;;;;;;;;5014847;28;20506;-74
2022/05/28 03:43:01;;;;;;;16.08;2.42;;;;;;;;;;5007938;28;20038;-74
2022/05/28 03:45:27;;;;;;;14.93;2.13;;;;;;;;;;4999879;28;20049;-73
2022/05/28 03:47:54;;;;;;;12.70;1.83;;;;;;;;;;5016142;28;20081;-73
2022/05/28 03:50:20;;;;;;;16.60;1.80;;;;;;;;;;5016308;28;20054;-74
2022/05/28 03:52:46;;;;;;;11.90;2.10;;;;;;;;;;5014205;28;20060;-74
2022/05/28 03:55:13;;;;;;;10.90;2.08;;;;;;;;;;5016284;28;20034;-73
2022/05/28 03:57:39;;;;;;;13.07;2.10;;;;;;;;;;5014035;28;20133;-74
2022/05/28 04:00:05;;;;;;;16.80;1.95;;;;;;;;;;5015541;28;20053;-74
2022/05/28 04:02:32;;;;;;;12.73;2.10;;;;;;;;;;5014334;28;20150;-74
2022/05/28 04:04:58;;;;;;;12.82;1.90;;;;;;;;;;5015697;28;20048;-73
2022/05/28 04:07:24;;;;;;;11.68;1.88;;;;;;;;;;5012547;28;20041;-73
2022/05/28 04:09:50;;;;;;;10.25;2.03;;;;;;;;;;5015042;28;20408;-73
2022/05/28 04:12:16;;;;;;;9.63;1.75;;;;;;;;;;5014369;28;20050;-73
2022/05/28 04:14:43;;;;;;;13.05;2.03;;;;;;;;;;5015170;28;20048;-74
2022/05/28 04:17:09;;;;;;;13.05;2.25;;;;;;;;;;5013984;28;20054;-74
2022/05/28 04:19:35;;;;;;;13.40;2.15;;;;;;;;;;5015917;28;20416;-74
2022/05/28 04:22:01;;;;;;;13.02;2.55;;;;;;;;;;5015050;28;20045;-74
2022/05/28 04:24:27;;;;;;;11.30;2.22;;;;;;;;;;5013870;28;20050;-74
2022/05/28 04:26:53;;;;;;;11.75;1.85;;;;;;;;;;5007429;28;20049;-74
2022/05/28 04:29:19;;;;;;;13.50;2.22;;;;;;;;;;5008952;28;20420;-73
2022/05/28 04:31:45;;;;;;;11.95;1.77;;;;;;;;;;5011317;28;20038;-74
2022/05/28 04:34:11;;;;;;;8.95;2.00;;;;;;;;;;5007881;28;20132;-73
2022/05/28 04:36:37;;;;;;;10.02;1.77;;;;;;;;;;5010910;28;20045;-74
2022/05/28 04:39:03;;;;;;;12.90;2.17;;;;;;;;;;5015214;28;20117;-74
2022/05/28 04:41:29;;;;;;;12.60;2.10;;;;;;;;;;5014418;28;20126;-75
2022/05/28 04:43:55;;;;;;;15.75;2.40;;;;;;;;;;5013662;28;20058;-74
2022/05/28 04:46:21;;;;;;;18.90;2.38;;;;;;;;;;5014707;28;20057;-74
2022/05/28 04:48:47;;;;;;;12.25;1.95;;;;;;;;;;5012578;28;20049;-74
2022/05/28 04:51:13;;;;;;;14.30;2.28;;;;;;;;;;5010176;28;20046;-74
2022/05/28 04:53:40;;;;;;;13.52;1.63;;;;;;;;;;5002317;28;20037;-74
2022/05/28 04:56:06;;;;;;;15.65;2.28;;;;;;;;;;5014649;28;20188;-74
2022/05/28 04:58:32;;;;;;;15.25;2.00;;;;;;;;;;5012804;28;20073;-74
2022/05/28 05:00:58;;;;;;;17.55;2.72;;;;;;;;;;5014002;28;20488;-74
2022/05/28 05:03:24;;;;;;;13.85;2.75;;;;;;;;;;5002508;28;20041;-74
2022/05/28 05:05:50;;;;;;;13.57;2.83;;;;;;;;;;5014790;28;20046;-74
2022/05/28 05:08:16;;;;;;;15.15;2.47;;;;;;;;;;5011478;28;20050;-73
2022/05/28 05:10:44;;;;;;;16.27;2.47;;;;;;;;;;5014469;28;20496;-73
2022/05/28 05:13:11;;;;;;;13.10;2.70;;;;;;;;;;5011631;28;20048;-73
2022/05/28 05:15:38;;;;;;;17.05;2.55;;;;;;;;;;5012099;28;20068;-74
2022/05/28 05:18:04;;;;;;;16.40;2.65;;;;;;;;;;5013172;28;20054;-74
2022/05/28 05:20:30;;;;;;;17.05;2.55;;;;;;;;;;5013202;28;20455;-74
2022/05/28 05:22:57;;;;;;;20.30;2.92;;;;;;;;;;5011356;28;20408;-74
2022/05/28 05:25:23;;;;;;;18.45;3.03;;;;;;;;;;5013424;28;20038;-74
2022/05/28 05:27:50;;;;;;;13.05;2.80;;;;;;;;;;5010625;28;20476;-73
2022/05/28 05:30:16;;;;;;;14.38;2.40;;;;;;;;;;5013085;28;20053;-73
2022/05/28 05:32:42;;;;;;;17.30;3.28;;;;;;;;;;5011959;28;20046;-74
2022/05/28 05:35:08;;;;;;;17.15;2.92;;;;;;;;;;5012519;28;20420;-74
2022/05/28 05:37:34;;;;;;;15.40;3.00;;;;;;;;;;5007516;28;20038;-74
2022/05/28 05:40:00;;;;;;;15.90;2.50;;;;;;;;;;5002830;28;20053;-75
2022/05/28 05:42:40;;;;;;;19.10;3.15;;;;;;;;;;5100156;27;20467;-73
2022/05/28 05:45:07;;;;;;;18.20;3.50;;;;;;;;;;5094347;28;20044;-73
2022/05/28 05:47:33;;;;;;;18.30;2.55;;;;;;;;;;5092490;28;20111;-74
2022/05/28 05:49:59;;;;;;;14.90;3.25;;;;;;;;;;5099411;28;20043;-74
2022/05/28 05:52:25;;;;;;;16.45;2.55;;;;;;;;;;5107953;28;20032;-74
2022/05/28 05:54:51;;;;;;;17.48;3.20;;;;;;;;;;5088461;28;20116;-74
2022/05/28 05:57:17;;;;;;;11.63;2.50;;;;;;;;;;5110394;28;20040;-74
2022/05/28 05:59:43;;;;;;;11.73;2.70;;;;;;;;;;5106835;28;20047;-74
2022/05/28 06:02:09;;;;;;;17.50;3.00;;;;;;;;;;5111058;27;20040;-74
2022/05/28 06:04:35;;;;;;;10.98;2.38;;;;;;;;;;5076283;28;20067;-74
2022/05/28 06:07:03;;;;;;;16.70;2.53;;;;;;;;;;5089722;28;20039;-74
2022/05/28 06:09:29;;;;;;;15.75;2.60;;;;;;;;;;5077612;28;20506;-75
2022/05/28 06:11:55;;;;;;;12.50;2.53;;;;;;;;;;5089607;28;20051;-74
2022/05/28 06:14:21;;;;;;;14.30;2.55;;;;;;;;;;5084112;28;20501;-74
2022/05/28 06:16:47;;;;;;;13.98;2.53;;;;;;;;;;5070023;28;20041;-74
2022/05/28 06:19:14;;;;;;;14.18;2.70;;;;;;;;;;5072456;28;20044;-74
2022/05/28 06:21:40;;;;;;;13.00;2.60;;;;;;;;;;5067857;28;20120;-74
2022/05/28 06:24:06;;;;;;;14.82;2.78;;;;;;;;;;5072439;28;20036;-74
2022/05/28 06:26:32;;;;;;;17.38;3.58;;;;;;;;;;5079466;28;20084;-74
2022/05/28 06:28:58;;;;;;;14.52;2.95;;;;;;;;;;5075763;28;20130;-74
2022/05/28 06:31:24;;;;;;;10.25;2.47;;;;;;;;;;5075479;28;20512;-74
2022/05/28 06:33:50;;;;;;;19.33;2.50;;;;;;;;;;5095177;28;20048;-74
2022/05/28 06:36:16;;;;;;;14.55;2.97;;;;;;;;;;5083878;28;20036;-74
2022/05/28 06:38:42;;;;;;;14.52;2.60;;;;;;;;;;5085379;28;20383;-74
2022/05/28 06:41:08;;;;;;;16.65;3.10;;;;;;;;;;5088816;28;20060;-73
2022/05/28 06:43:34;;;;;;;15.48;2.60;;;;;;;;;;5089213;28;20091;-75
2022/05/28 06:46:04;;;;;;;14.43;2.40;;;;;;;;;;5087199;28;20067;-74
2022/05/28 06:48:30;;;;;;;13.00;2.80;;;;;;;;;;5079682;28;20466;-74
2022/05/28 06:51:02;;;;;;;11.50;2.60;;;;;;;;;;5068558;28;20063;-75
2022/05/28 06:53:29;;;;;;;14.43;2.83;;;;;;;;;;5058356;28;20102;-74
2022/05/28 06:55:55;;;;;;;13.55;2.72;;;;;;;;;;5054508;28;20045;-74
2022/05/28 06:58:21;;;;;;;14.02;3.10;;;;;;;;;;5068623;28;20045;-74
2022/05/28 07:00:47;;;;;;;14.48;2.78;;;;;;;;;;5064958;28;20388;-74
2022/05/28 07:03:14;;;;;;;10.68;2.13;;;;;;;;;;5081047;28;20378;-74
2022/05/28 07:05:40;;;;;;;15.38;2.42;;;;;;;;;;5083932;28;20131;-74
2022/05/28 07:08:07;;;;;;;13.50;2.70;;;;;;;;;;5074724;28;20041;-74
2022/05/28 07:10:33;;;;;;;13.20;2.80;;;;;;;;;;5071869;28;20047;-74
2022/05/28 07:12:59;;;;;;;12.35;2.13;;;;;;;;;;5075124;28;20056;-74
2022/05/28 07:15:25;;;;;;;11.55;2.40;;;;;;;;;;5067699;28;20049;-75
2022/05/28 07:17:51;;;;;;;13.52;2.75;;;;;;;;;;5074315;28;20491;-75
2022/05/28 07:20:17;;;;;;;16.13;2.90;;;;;;;;;;5074992;28;20048;-75
2022/05/28 07:22:43;;;;;;;13.20;2.88;;;;;;;;;;5057395;28;20132;-74
2022/05/28 07:25:10;;;;;;;13.77;2.70;;;;;;;;;;5075129;28;20522;-74
2022/05/28 07:27:36;;;;;;;15.05;2.85;;;;;;;;;;5073224;28;20506;-74
2022/05/28 07:30:02;;;;;;;13.15;2.75;;;;;;;;;;5074189;28;20048;-74
2022/05/28 07:32:30;;;;;;;12.63;2.60;;;;;;;;;;5059588;28;20037;-73
2022/05/28 07:34:59;;;;;;;13.95;2.67;;;;;;;;;;5067608;28;20049;-74
2022/05/28 07:37:26;;;;;;;12.73;2.33;;;;;;;;;;5062915;28;20045;-74
2022/05/28 07:39:52;;;;;;;10.63;2.00;;;;;;;;;;5054391;28;20049;-74
2022/05/28 07:42:18;;;;;;;12.10;2.30;;;;;;;;;;5054471;28;20391;-74
2022/05/28 07:44:44;;;;;;;11.30;2.20;;;;;;;;;;5054597;28;20068;-74
2022/05/28 07:47:10;;;;;;;8.77;2.10;;;;;;;;;;5054150;28;20072;-75
2022/05/28 07:49:37;;;;;;;10.73;2.13;;;;;;;;;;5054481;28;20048;-74
2022/05/28 07:52:03;;;;;;;12.50;2.13;;;;;;;;;;5054377;28;20068;-74
2022/05/28 07:54:29;;;;;;;10.50;2.00;;;;;;;;;;5054409;28;20056;-73
2022/05/28 07:56:55;;;;;;;10.50;2.20;;;;;;;;;;5054389;28;20053;-74
2022/05/28 07:59:21;;;;;;;9.48;1.95;;;;;;;;;;5063759;28;20049;-75
2022/05/28 08:01:47;;;;;;;14.48;2.33;;;;;;;;;;5059696;28;20470;-75
2022/05/28 08:04:14;;;;;;;13.23;2.22;;;;;;;;;;5054625;28;20041;-74
2022/05/28 08:06:40;;;;;;;11.75;2.20;;;;;;;;;;5053671;28;20126;-73
2022/05/28 08:09:07;;;;;;;14.98;2.80;;;;;;;;;;5054075;28;20040;-73
2022/05/28 08:11:34;;;;;;;13.23;2.33;;;;;;;;;;5053985;28;20048;-74
2022/05/28 08:14:00;;;;;;;11.57;2.20;;;;;;;;;;5068110;28;20045;-75
2022/05/28 08:16:26;;;;;;;16.17;2.35;;;;;;;;;;5053755;28;20094;-75
2022/05/28 08:18:52;;;;;;;12.55;2.55;;;;;;;;;;5054581;28;20045;-74
2022/05/28 08:24:04;;;;;;;16.67;2.78;;;;;;;;;;5053684;28;20495;-74
2022/05/28 08:26:30;;;;;;;15.35;2.65;;;;;;;;;;5056303;28;20581;-74
2022/05/28 08:28:56;;;;;;;13.50;2.83;;;;;;;;;;5060200;28;20383;-73
2022/05/28 08:31:22;;;;;;;16.92;2.83;;;;;;;;;;5073387;28;20047;-75
2022/05/28 08:33:49;;;;;;;18.05;2.95;;;;;;;;;;5072418;28;20125;-75
2022/05/28 08:36:15;;;;;;;16.98;2.58;;;;;;;;;;5055066;28;20069;-74
2022/05/28 08:38:42;;;;;;;16.42;2.90;;;;;;;;;;5067143;28;20102;-74
2022/05/28 08:41:12;;;;;;;17.70;3.08;;;;;;;;;;5072793;28;20052;-74
2022/05/28 08:43:40;;;;;;;16.08;2.88;;;;;;;;;;5073219;28;20048;-75
2022/05/28 08:46:09;;;;;;;17.52;3.38;;;;;;;;;;5073055;28;20045;-74
2022/05/28 08:48:39;;;;;;;19.33;2.95;;;;;;;;;;5060405;28;20075;-74
2022/05/28 08:51:08;;;;;;;17.30;2.87;;;;;;;;;;5069294;28;20395;-75
2022/05/28 08:53:45;;;;;;;18.15;3.00;;;;;;;;;;5059724;28;20411;-75
2022/05/28 08:56:14;;;;;;;21.88;3.45;;;;;;;;;;5075244;28;20569;-75
2022/05/28 08:58:40;;;;;;;15.93;3.10;;;;;;;;;;5070612;28;20040;-75
2022/05/28 09:01:10;;;;;;;19.05;2.75;;;;;;;;;;5067000;28;20403;-75
2022/05/28 09:03:44;;;;;;;15.30;2.47;;;;;;;;;;5068701;28;20494;-74
2022/05/28 09:06:15;;;;;;;20.27;3.13;;;;;;;;;;5071367;28;20040;-74
2022/05/28 09:08:41;;;;;;;14.50;2.58;;;;;;;;;;5072702;28;20044;-74
2022/05/28 09:11:10;;;;;;;16.77;2.60;;;;;;;;;;5072716;28;20414;-74
2022/05/28 09:13:44;;;;;;;17.20;2.72;;;;;;;;;;5071854;28;20051;-74
2022/05/28 09:16:16;;;;;;;12.55;2.20;;;;;;;;;;5071876;28;20420;-74
2022/05/28 09:18:42;;;;;;;11.75;2.20;;;;;;;;;;5065270;28;20037;-74
2022/05/28 09:21:11;;;;;;;11.18;2.47;;;;;;;;;;5072702;28;20045;-74
2022/05/28 09:23:41;;;;;;;12.85;2.30;;;;;;;;;;5072678;28;20040;-74
2022/05/28 09:26:08;;;;;;;14.25;2.50;;;;;;;;;;5072900;28;20044;-75
2022/05/28 09:28:44;;;;;;;13.10;2.67;;;;;;;;;;5072910;28;20043;-74
2022/05/28 09:31:10;;;;;;;14.75;2.40;;;;;;;;;;5059687;28;20128;-75
2022/05/28 09:33:51;;;;;;;11.85;2.38;;;;;;;;;;5056353;28;20116;-75
2022/05/28 09:36:31;;;;;;;17.10;3.17;;;;;;;;;;5072154;28;20521;-75
2022/05/28 09:39:16;;;;;;;15.48;3.20;;;;;;;;;;5072697;28;20044;-75
2022/05/28 09:41:53;;;;;;;13.98;2.92;;;;;;;;;;5072242;28;20060;-75
2022/05/28 09:44:37;;;;;;;19.23;2.70;;;;;;;;;;5072656;28;20040;-75
2022/05/28 09:47:07;;;;;;;15.13;2.90;;;;;;;;;;5072007;28;20380;-75
2022/05/28 09:49:33;;;;;;;16.38;2.55;;;;;;;;;;5072504;28;20052;-74
2022/05/28 09:52:06;;;;;;;17.77;2.65;;;;;;;;;;5072598;28;20076;-74
2022/05/28 09:54:33;;;;;;;12.85;2.28;;;;;;;;;;5052463;28;20056;-75
2022/05/28 09:57:03;;;;;;;14.30;3.08;;;;;;;;;;5069504;28;20040;-74
2022/05/28 09:59:32;;;;;;;13.15;2.20;;;;;;;;;;5070662;28;20092;-74
2022/05/28 10:01:58;;;;;;;13.15;2.33;;;;;;;;;;5071349;28;20486;-74
2022/05/28 10:04:31;;;;;;;17.40;2.53;;;;;;;;;;5071478;28;20399;-74
2022/05/28 10:06:59;;;;;;;15.20;2.70;;;;;;;;;;5067083;28;20119;-74
2022/05/28 10:09:29;;;;;;;21.40;3.00;;;;;;;;;;5070970;28;20040;-75
2022/05/28 10:11:57;;;;;;;15.88;2.75;;;;;;;;;;5072439;28;20044;-75
2022/05/28 10:14:24;;;;;;;14.48;2.95;;;;;;;;;;5070684;28;20106;-75
2022/05/28 10:16:53;;;;;;;16.15;5.78;;;;;;;;;;5065633;28;20044;-75
2022/05/28 10:19:31;;;;;;;18.50;3.03;;;;;;;;;;5065357;28;20044;-74
2022/05/28 10:21:58;;;;;;;15.00;3.10;;;;;;;;;;5070697;28;20056;-75
2022/05/28 10:24:26;;;;;;;15.23;3.80;;;;;;;;;;5065705;28;20045;-74
2022/05/28 10:26:58;;;;;;;17.67;5.28;;;;;;;;;;5064701;28;20041;-74
2022/05/28 10:29:41;;;;;;;14.23;4.30;;;;;;;;;;5066929;28;20041;-74
2022/05/28 10:32:17;;;;;;;15.57;2.67;;;;;;;;;;5069981;28;20092;-74
2022/05/28 10:34:43;;;;;;;15.20;3.97;;;;;;;;;;5065746;28;20053;-74
2022/05/28 10:37:17;;;;;;;18.77;4.40;;;;;;;;;;5069427;28;20052;-74
2022/05/28 10:39:43;;;;;;;14.68;3.45;;;;;;;;;;5055859;28;20049;-75
2022/05/28 10:42:11;;;;;;;13.45;3.08;;;;;;;;;;5088381;28;20049;-74
2022/05/28 10:44:38;;;;;;;17.45;2.90;;;;;;;;;;5055530;28;20561;-74
2022/05/28 10:47:23;;;;;;;15.88;2.88;;;;;;;;;;5055282;28;20505;-74
2022/05/28 10:50:16;;;;;;;13.48;2.30;;;;;;;;;;5054429;28;20045;-74
2022/05/28 10:52:51;;;;;;;15.07;3.15;;;;;;;;;;5053863;28;20481;-73
2022/05/28 10:55:23;;;;;;;15.25;2.42;;;;;;;;;;5070161;28;20055;-74
2022/05/28 10:57:49;;;;;;;13.48;2.63;;;;;;;;;;5071818;28;20044;-74
2022/05/28 11:00:18;;;;;;;16.38;2.88;;;;;;;;;;5054382;28;20049;-74
2022/05/28 11:02:53;;;;;;;13.77;2.75;;;;;;;;;;5056769;28;20121;-74
2022/05/28 11:05:19;;;;;;;14.57;3.00;;;;;;;;;;5055073;28;20048;-74
2022/05/28 11:07:55;;;;;;;14.10;2.72;;;;;;;;;;5055074;28;20437;-74
2022/05/28 11:10:32;;;;;;;14.85;2.72;;;;;;;;;;5060850;28;20978;-75
2022/05/28 11:12:58;;;;;;;17.38;2.65;;;;;;;;;;5067333;28;20053;-74
2022/05/28 11:15:42;;;;;;;14.25;2.42;;;;;;;;;;5063802;28;20029;-74
2022/05/28 11:18:33;;;;;;;9.65;1.88;;;;;;;;;;5074023;28;20408;-74
2022/05/28 11:21:17;;;;;;;11.80;1.73;;;;;;;;;;5073350;28;20063;-74
2022/05/28 11:24:02;;;;;;;10.65;1.80;;;;;;;;;;5056311;28;20037;-74
2022/05/28 11:26:47;;;;;;;12.80;2.67;;;;;;;;;;5062234;28;20139;-74
2022/05/28 11:29:20;;;;;;;9.85;1.92;;;;;;;;;;5066829;28;20052;-74
2022/05/28 11:32:04;;;;;;;11.90;1.90;;;;;;;;;;5067026;28;20059;-75
2022/05/28 11:34:33;;;;;;;10.10;1.58;;;;;;;;;;5070230;28;20048;-74
2022/05/28 11:37:02;;;;;;;9.30;1.50;;;;;;;;;;5037109;28;20053;-75
2022/05/28 11:39:28;;;;;;;6.68;1.20;;;;;;;;;;5054490;28;20044;-75
2022/05/28 11:42:05;;;;;;;11.18;1.50;;;;;;;;;;5073264;28;20045;-74
2022/05/28 11:44:54;;;;;;;9.85;1.50;;;;;;;;;;5071876;28;20059;-74
2022/05/28 11:47:20;;;;;;;7.43;1.55;;;;;;;;;;5062951;28;20073;-73
2022/05/28 11:52:40;;;;;;;10.63;1.73;;;;;;;;;;5065584;28;20052;-74
2022/05/28 11:55:10;;;;;;;8.48;1.63;;;;;;;;;;5073102;28;20044;-74
2022/05/28 11:57:42;;;;;;;6.65;1.40;;;;;;;;;;5074163;28;20478;-74
2022/05/28 12:00:09;;;;;;;9.63;1.90;;;;;;;;;;5071964;28;21407;-74
2022/05/28 12:02:39;;;;;;;12.60;1.90;;;;;;;;;;5091136;28;20048;-74
2022/05/28 12:05:15;;;;;;;9.73;1.65;;;;;;;;;;5074261;28;20045;-74
2022/05/28 12:07:41;;;;;;;12.98;2.30;;;;;;;;;;5074051;28;20464;-74
2022/05/28 12:10:16;;;;;;;9.77;2.22;;;;;;;;;;5073772;28;20182;-74
2022/05/28 12:12:54;;;;;;;9.75;1.70;;;;;;;;;;5074133;28;20045;-75
2022/05/28 12:15:22;;;;;;;11.35;1.85;;;;;;;;;;5071065;28;20040;-74
2022/05/28 12:17:59;;;;;;;10.13;2.05;;;;;;;;;;5072635;28;20052;-74
2022/05/28 12:20:32;;;;;;;10.40;2.08;;;;;;;;;;5073690;28;20045;-75
2022/05/28 12:23:03;;;;;;;13.40;1.90;;;;;;;;;;5072692;28;20567;-74
2022/05/28 12:25:29;;;;;;;12.13;2.33;;;;;;;;;;5054718;28;20105;-74
2022/05/28 12:27:55;;;;;;;12.18;2.08;;;;;;;;;;5054389;28;20124;-74
2022/05/28 12:30:24;;;;;;;13.82;1.95;;;;;;;;;;5057533;28;20037;-74
2022/05/28 12:32:51;;;;;;;11.70;2.13;;;;;;;;;;5053681;28;20060;-75
2022/05/28 12:35:20;;;;;;;11.13;2.25;;;;;;;;;;5082512;28;20052;-74
2022/05/28 12:37:50;;;;;;;13.07;2.30;;;;;;;;;;5093964;28;20504;-74
2022/05/28 12:40:38;;;;;;;10.90;1.90;;;;;;;;;;5088679;28;20376;-74
2022/05/28 12:43:23;;;;;;;10.48;2.22;;;;;;;;;;5072516;28;20045;-74
2022/05/28 12:45:50;;;;;;;12.70;2.47;;;;;;;;;;5061364;28;20071;-74
2022/05/28 12:48:24;;;;;;;12.05;2.20;;;;;;;;;;5071298;28;20041;-74
2022/05/28 12:50:51;;;;;;;9.73;1.80;;;;;;;;;;5071162;28;20402;-74
2022/05/28 12:53:21;;;;;;;10.82;1.83;;;;;;;;;;5072360;28;20406;-74
2022/05/28 12:55:47;;;;;;;12.85;2.10;;;;;;;;;;5052986;28;20044;-73
2022/05/28 12:58:27;;;;;;;11.85;2.20;;;;;;;;;;5066501;28;20123;-74
2022/05/28 13:00:57;;;;;;;8.48;1.70;;;;;;;;;;5072708;28;20155;-74
2022/05/28 13:03:24;;;;;;;13.33;2.20;;;;;;;;;;5070805;28;20049;-74
2022/05/28 13:05:54;;;;;;;9.30;2.10;;;;;;;;;;5053013;28;20287;-74
2022/05/28 13:08:28;;;;;;;13.60;2.53;;;;;;;;;;5058450;28;20474;-74
2022/05/28 13:10:55;;;;;;;9.80;2.05;;;;;;;;;;5052891;28;20049;-74
2022/05/28 13:13:33;;;;;;;11.68;2.45;;;;;;;;;;5053530;28;20037;-74
2022/05/28 13:16:05;;;;;;;11.82;2.22;;;;;;;;;;5069015;28;20045;-75
2022/05/28 13:19:04;;;;;;;10.93;2.08;;;;;;;;;;5065236;28;20040;-75
2022/05/28 13:21:30;;;;;;;12.85;2.45;;;;;;;;;;5068197;28;20518;-75
2022/05/28 13:24:08;;;;;;;11.52;2.20;;;;;;;;;;5062864;28;20045;-74
2022/05/28 13:26:36;;;;;;;10.43;1.88;;;;;;;;;;5060991;28;20048;-74
2022/05/28 13:29:20;;;;;;;12.27;2.05;;;;;;;;;;5070258;28;20037;-74
2022/05/28 13:31:51;;;;;;;11.35;2.50;;;;;;;;;;5053502;28;20060;-75
2022/05/28 13:34:18;;;;;;;;;;;;;;;;;;5068667;28;20498;-75
2022/05/28 13:36:44;;;;;;;14.07;2.22;;;;;;;;;;5075829;28;19942;-74
2022/05/28 13:39:10;;;;;;;11.57;2.30;;;;;;;;;;5069687;28;20048;-74
2022/05/28 13:41:44;;;;;;;16.77;2.35;;;;;;;;;;5053277;28;20142;-75
2022/05/28 13:44:12;;;;;;;12.95;2.00;;;;;;;;;;5086896;28;20060;-74
2022/05/28 13:46:44;;;;;;;12.80;2.42;;;;;;;;;;5070194;28;20040;-75
2022/05/28 13:49:10;;;;;;;11.40;2.42;;;;;;;;;;5068435;28;20040;-75
2022/05/28 13:51:37;;;;;;;11.15;2.35;;;;;;;;;;5069607;28;20191;-75
2022/05/28 13:54:07;;;;;;;12.05;2.08;;;;;;;;;;5068990;28;20055;-75
2022/05/28 13:56:33;;;;;;;7.95;1.55;;;;;;;;;;5069860;28;20059;-75
2022/05/28 13:58:59;;;;;;;11.05;2.00;;;;;;;;;;5069798;28;20128;-75
2022/05/28 14:01:33;;;;;;;11.43;1.85;;;;;;;;;;5068861;28;20128;-75
2022/05/28 14:04:10;;;;;;;12.68;1.75;;;;;;;;;;5075422;28;20044;-75
2022/05/28 14:06:38;;;;;;;10.18;2.03;;;;;;;;;;5076274;28;20052;-75
2022/05/28 14:09:05;;;;;;;9.35;1.75;;;;;;;;;;5076274;28;20094;-75
2022/05/28 14:11:38;;;;;;;10.63;1.83;;;;;;;;;;5075216;28;20032;-74
2022/05/28 14:14:07;;;;;;;5.82;1.20;;;;;;;;;;5059244;28;20051;-75
2022/05/28 14:16:36;;;;;;;6.53;1.33;;;;;;;;;;5056609;28;20048;-75
2022/05/28 14:19:05;;;;;;;9.35;1.70;;;;;;;;;;5056027;28;20055;-73
2022/05/28 14:21:33;;;;;;;11.50;2.10;;;;;;;;;;5055728;28;20103;-75
2022/05/28 14:24:01;;;;;;;10.30;2.00;;;;;;;;;;5075363;28;20083;-75
2022/05/28 14:26:27;;;;;;;9.77;1.50;;;;;;;;;;5075827;28;20044;-75
2022/05/28 14:28:53;;;;;;;11.80;1.83;;;;;;;;;;5072673;28;20111;-74
2022/05/28 14:31:20;;;;;;;11.40;1.80;;;;;;;;;;5060822;28;20037;-73
2022/05/28 14:33:52;;;;;;;9.05;1.25;;;;;;;;;;5058244;28;20554;-74
2022/05/28 14:36:18;;;;;;;;;;;;;;;;;;5073114;28;20105;-75
2022/05/28 14:38:44;;;;;;;9.30;1.70;;;;;;;;;;5073043;28;19921;-74
2022/05/28 14:41:12;;;;;;;10.45;1.77;;;;;;;;;;5074725;28;20060;-74
2022/05/28 14:43:39;;;;;;;8.50;1.13;;;;;;;;;;5075484;28;20140;-74
2022/05/28 14:46:28;;;;;;;9.65;1.50;;;;;;;;;;5074260;28;20048;-74
2022/05/28 14:48:57;;;;;;;9.13;1.50;;;;;;;;;;5073989;28;20059;-74
2022/05/28 14:51:23;;;;;;;8.38;1.50;;;;;;;;;;5075217;28;20047;-74